sensor_id;sensor_type;location;lat;lon;timestamp;pressure;altitude;pressure_sealevel;temperature;humidity
35649;BME280;21768;48.562;13.414;2023-08-07T00:01:44;96742.91;;;14.05;72.44
35649;BME280;21768;48.562;13.414;2023-08-07T00:04:09;96749.66;;;14.04;72.24
35649;BME280;21768;48.562;13.414;2023-08-07T00:06:35;96745.31;;;14.02;71.97
35649;BME280;21768;48.562;13.414;2023-08-07T00:09:00;96738.53;;;14.01;72.16
35649;BME280;21768;48.562;13.414;2023-08-07T00:11:25;96747.06;;;14.03;72.94
35649;BME280;21768;48.562;13.414;2023-08-07T00:13:53;96746.94;;;14.00;72.25
35649;BME280;21768;48.562;13.414;2023-08-07T00:16:18;96745.94;;;13.96;72.03
35649;BME280;21768;48.562;13.414;2023-08-07T00:18:43;96745.88;;;13.94;72.01
35649;BME280;21768;48.562;13.414;2023-08-07T00:21:09;96738.94;;;13.90;72.48
35649;BME280;21768;48.562;13.414;2023-08-07T00:23:34;96753.34;;;13.91;72.04
35649;BME280;21768;48.562;13.414;2023-08-07T00:26:00;96745.66;;;13.90;72.04
35649;BME280;21768;48.562;13.414;2023-08-07T00:28:25;96743.34;;;13.94;72.41
35649;BME280;21768;48.562;13.414;2023-08-07T00:30:50;96748.16;;;13.88;72.35
35649;BME280;21768;48.562;13.414;2023-08-07T00:33:16;96739.88;;;13.92;72.40
35649;BME280;21768;48.562;13.414;2023-08-07T00:35:41;96751.81;;;13.95;73.00
35649;BME280;21768;48.562;13.414;2023-08-07T00:38:06;96752.53;;;13.92;72.96
35649;BME280;21768;48.562;13.414;2023-08-07T00:40:39;96750.69;;;13.88;72.51
35649;BME280;21768;48.562;13.414;2023-08-07T00:43:05;96751.53;;;13.89;72.87
35649;BME280;21768;48.562;13.414;2023-08-07T00:45:41;96749.75;;;13.86;73.33
35649;BME280;21768;48.562;13.414;2023-08-07T00:48:07;96752.84;;;13.79;72.70
35649;BME280;21768;48.562;13.414;2023-08-07T00:50:32;96754.19;;;13.71;72.29
35649;BME280;21768;48.562;13.414;2023-08-07T00:52:58;96758.25;;;13.68;73.25
35649;BME280;21768;48.562;13.414;2023-08-07T00:55:24;96753.25;;;13.69;72.85
35649;BME280;21768;48.562;13.414;2023-08-07T00:57:50;96761.59;;;13.67;72.99
35649;BME280;21768;48.562;13.414;2023-08-07T01:00:15;96750.53;;;13.65;73.25
35649;BME280;21768;48.562;13.414;2023-08-07T01:02:41;96761.38;;;13.60;73.35
35649;BME280;21768;48.562;13.414;2023-08-07T01:05:07;96755.22;;;13.55;73.69
35649;BME280;21768;48.562;13.414;2023-08-07T01:07:32;96760.22;;;13.54;73.65
35649;BME280;21768;48.562;13.414;2023-08-07T01:09:58;96760.09;;;13.51;73.66
35649;BME280;21768;48.562;13.414;2023-08-07T01:12:30;96757.56;;;13.51;74.28
35649;BME280;21768;48.562;13.414;2023-08-07T01:17:33;96749.81;;;13.48;74.22
35649;BME280;21768;48.562;13.414;2023-08-07T01:19:59;96757.41;;;13.48;74.39
35649;BME280;21768;48.562;13.414;2023-08-07T01:22:25;96756.41;;;13.44;74.47
35649;BME280;21768;48.562;13.414;2023-08-07T01:24:51;96766.34;;;13.40;74.29
35649;BME280;21768;48.562;13.414;2023-08-07T01:35:22;96765.69;;;13.24;75.03
35649;BME280;21768;48.562;13.414;2023-08-07T01:37:51;96758.75;;;13.20;75.15
35649;BME280;21768;48.562;13.414;2023-08-07T01:40:19;96769.81;;;13.22;75.34
35649;BME280;21768;48.562;13.414;2023-08-07T01:42:45;96754.63;;;13.22;75.23
35649;BME280;21768;48.562;13.414;2023-08-07T01:45:12;96753.38;;;13.14;75.54
35649;BME280;21768;48.562;13.414;2023-08-07T01:47:37;96763.25;;;13.08;75.83
35649;BME280;21768;48.562;13.414;2023-08-07T01:50:03;96755.50;;;13.05;76.18
35649;BME280;21768;48.562;13.414;2023-08-07T01:52:29;96752.41;;;12.93;76.50
35649;BME280;21768;48.562;13.414;2023-08-07T01:54:55;96748.94;;;12.91;77.06
35649;BME280;21768;48.562;13.414;2023-08-07T01:57:20;96743.75;;;12.88;77.14
35649;BME280;21768;48.562;13.414;2023-08-07T01:59:46;96746.16;;;12.85;77.69
35649;BME280;21768;48.562;13.414;2023-08-07T02:02:11;96753.88;;;12.88;77.88
35649;BME280;21768;48.562;13.414;2023-08-07T02:04:36;96738.41;;;12.82;77.81
35649;BME280;21768;48.562;13.414;2023-08-07T02:07:02;96748.41;;;12.79;78.07
35649;BME280;21768;48.562;13.414;2023-08-07T02:09:28;96754.19;;;12.76;78.23
35649;BME280;21768;48.562;13.414;2023-08-07T02:11:53;96749.72;;;12.71;78.53
35649;BME280;21768;48.562;13.414;2023-08-07T02:14:19;96749.34;;;12.63;78.72
35649;BME280;21768;48.562;13.414;2023-08-07T02:16:44;96751.00;;;12.63;79.13
35649;BME280;21768;48.562;13.414;2023-08-07T02:19:09;96748.44;;;12.61;79.47
35649;BME280;21768;48.562;13.414;2023-08-07T02:21:35;96752.69;;;12.62;79.26
35649;BME280;21768;48.562;13.414;2023-08-07T02:24:00;96751.00;;;12.63;79.27
35649;BME280;21768;48.562;13.414;2023-08-07T02:26:25;96747.28;;;12.54;79.67
35649;BME280;21768;48.562;13.414;2023-08-07T02:28:51;96752.34;;;12.54;79.59
35649;BME280;21768;48.562;13.414;2023-08-07T02:31:16;96743.81;;;12.52;79.56
35649;BME280;21768;48.562;13.414;2023-08-07T02:33:41;96759.84;;;12.53;79.86
35649;BME280;21768;48.562;13.414;2023-08-07T02:36:07;96759.00;;;12.52;79.56
35649;BME280;21768;48.562;13.414;2023-08-07T02:38:33;96762.16;;;12.48;79.84
35649;BME280;21768;48.562;13.414;2023-08-07T02:40:58;96757.53;;;12.40;80.27
35649;BME280;21768;48.562;13.414;2023-08-07T02:43:23;96765.28;;;12.43;80.39
35649;BME280;21768;48.562;13.414;2023-08-07T02:45:49;96766.94;;;12.42;80.58
35649;BME280;21768;48.562;13.414;2023-08-07T02:48:14;96755.06;;;12.41;80.85
35649;BME280;21768;48.562;13.414;2023-08-07T02:50:39;96753.22;;;12.37;80.79
35649;BME280;21768;48.562;13.414;2023-08-07T02:53:05;96752.13;;;12.32;80.84
35649;BME280;21768;48.562;13.414;2023-08-07T02:55:30;96756.25;;;12.30;80.82
35649;BME280;21768;48.562;13.414;2023-08-07T02:57:56;96751.84;;;12.26;81.16
35649;BME280;21768;48.562;13.414;2023-08-07T03:00:21;96744.09;;;12.23;81.14
35649;BME280;21768;48.562;13.414;2023-08-07T03:02:47;96741.72;;;12.26;81.48
35649;BME280;21768;48.562;13.414;2023-08-07T03:05:12;96738.16;;;12.22;81.46
35649;BME280;21768;48.562;13.414;2023-08-07T03:07:37;96744.88;;;12.22;81.56
35649;BME280;21768;48.562;13.414;2023-08-07T03:10:03;96738.25;;;12.24;81.56
35649;BME280;21768;48.562;13.414;2023-08-07T03:12:29;96737.88;;;12.16;81.32
35649;BME280;21768;48.562;13.414;2023-08-07T03:14:55;96737.69;;;12.12;81.33
35649;BME280;21768;48.562;13.414;2023-08-07T03:17:20;96739.19;;;12.08;81.34
35649;BME280;21768;48.562;13.414;2023-08-07T03:19:46;96746.94;;;12.11;81.45
35649;BME280;21768;48.562;13.414;2023-08-07T03:22:12;96752.88;;;12.13;81.36
35649;BME280;21768;48.562;13.414;2023-08-07T03:24:37;96754.50;;;12.11;81.27
35649;BME280;21768;48.562;13.414;2023-08-07T03:27:03;96749.50;;;12.13;81.48
35649;BME280;21768;48.562;13.414;2023-08-07T03:29:28;96744.50;;;12.14;81.83
35649;BME280;21768;48.562;13.414;2023-08-07T03:31:54;96755.66;;;12.18;81.42
35649;BME280;21768;48.562;13.414;2023-08-07T03:34:19;96753.03;;;12.16;81.64
35649;BME280;21768;48.562;13.414;2023-08-07T03:36:45;96749.00;;;12.20;81.54
35649;BME280;21768;48.562;13.414;2023-08-07T03:39:10;96746.25;;;12.15;81.44
35649;BME280;21768;48.562;13.414;2023-08-07T03:41:37;96755.66;;;12.18;81.75
35649;BME280;21768;48.562;13.414;2023-08-07T03:44:02;96750.88;;;12.24;81.72
35649;BME280;21768;48.562;13.414;2023-08-07T03:46:28;96752.63;;;12.25;81.40
35649;BME280;21768;48.562;13.414;2023-08-07T03:48:53;96752.63;;;12.25;81.60
35649;BME280;21768;48.562;13.414;2023-08-07T03:51:18;96763.75;;;12.29;81.63
35649;BME280;21768;48.562;13.414;2023-08-07T03:53:44;96757.03;;;12.29;81.20
35649;BME280;21768;48.562;13.414;2023-08-07T03:56:09;96766.22;;;12.27;81.58
35649;BME280;21768;48.562;13.414;2023-08-07T03:58:35;96766.22;;;12.27;81.86
35649;BME280;21768;48.562;13.414;2023-08-07T04:01:01;96773.16;;;12.31;81.81
35649;BME280;21768;48.562;13.414;2023-08-07T04:03:26;96765.66;;;12.33;81.86
35649;BME280;21768;48.562;13.414;2023-08-07T04:05:52;96770.72;;;12.33;81.57
35649;BME280;21768;48.562;13.414;2023-08-07T04:08:21;96754.00;;;12.36;81.58
35649;BME280;21768;48.562;13.414;2023-08-07T04:13:26;96780.03;;;12.34;80.95
35649;BME280;21768;48.562;13.414;2023-08-07T04:15:52;96776.25;;;12.25;81.02
35649;BME280;21768;48.562;13.414;2023-08-07T04:18:17;96776.34;;;12.27;81.34
35649;BME280;21768;48.562;13.414;2023-08-07T04:20:48;96781.47;;;12.29;81.02
35649;BME280;21768;48.562;13.414;2023-08-07T04:23:14;96780.38;;;12.23;81.08
35649;BME280;21768;48.562;13.414;2023-08-07T04:25:39;96773.72;;;12.25;81.25
35649;BME280;21768;48.562;13.414;2023-08-07T04:28:04;96775.47;;;12.26;81.07
35649;BME280;21768;48.562;13.414;2023-08-07T04:30:30;96782.97;;;12.25;81.12
35649;BME280;21768;48.562;13.414;2023-08-07T04:32:55;96780.38;;;12.23;80.64
35649;BME280;21768;48.562;13.414;2023-08-07T04:35:21;96781.16;;;12.22;81.25
35649;BME280;21768;48.562;13.414;2023-08-07T04:37:46;96798.22;;;12.26;81.27
35649;BME280;21768;48.562;13.414;2023-08-07T04:40:12;96793.25;;;12.28;81.07
35649;BME280;21768;48.562;13.414;2023-08-07T04:42:37;96790.56;;;12.25;81.06
35649;BME280;21768;48.562;13.414;2023-08-07T04:45:03;96790.63;;;12.26;81.24
35649;BME280;21768;48.562;13.414;2023-08-07T04:47:29;96799.88;;;12.26;80.77
35649;BME280;21768;48.562;13.414;2023-08-07T04:49:54;96792.94;;;12.22;80.95
35649;BME280;21768;48.562;13.414;2023-08-07T04:52:19;96787.72;;;12.19;81.03
35649;BME280;21768;48.562;13.414;2023-08-07T04:54:45;96807.81;;;12.16;81.08
35649;BME280;21768;48.562;13.414;2023-08-07T04:57:10;96809.28;;;12.11;80.81
35649;BME280;21768;48.562;13.414;2023-08-07T04:59:35;96803.34;;;12.10;81.36
35649;BME280;21768;48.562;13.414;2023-08-07T05:02:01;96814.44;;;12.14;81.09
35649;BME280;21768;48.562;13.414;2023-08-07T05:04:26;96806.94;;;12.15;80.89
35649;BME280;21768;48.562;13.414;2023-08-07T05:06:52;96818.16;;;12.20;80.91
35649;BME280;21768;48.562;13.414;2023-08-07T05:09:17;96826.69;;;12.22;81.04
35649;BME280;21768;48.562;13.414;2023-08-07T05:11:42;96823.28;;;12.22;80.32
35649;BME280;21768;48.562;13.414;2023-08-07T05:14:08;96825.81;;;12.22;80.44
35649;BME280;21768;48.562;13.414;2023-08-07T05:16:33;96833.56;;;12.25;80.27
35649;BME280;21768;48.562;13.414;2023-08-07T05:18:58;96834.34;;;12.24;80.28
35649;BME280;21768;48.562;13.414;2023-08-07T05:21:24;96842.81;;;12.24;80.44
35649;BME280;21768;48.562;13.414;2023-08-07T05:23:49;96833.63;;;12.26;80.25
35649;BME280;21768;48.562;13.414;2023-08-07T05:26:18;96841.22;;;12.26;79.87
35649;BME280;21768;48.562;13.414;2023-08-07T05:28:43;96832.75;;;12.26;80.15
35649;BME280;21768;48.562;13.414;2023-08-07T05:31:09;96843.75;;;12.26;80.01
35649;BME280;21768;48.562;13.414;2023-08-07T05:33:34;96844.69;;;12.29;79.64
35649;BME280;21768;48.562;13.414;2023-08-07T05:35:59;96840.34;;;12.26;79.87
35649;BME280;21768;48.562;13.414;2023-08-07T05:38:25;96851.25;;;12.25;79.89
35649;BME280;21768;48.562;13.414;2023-08-07T05:40:50;96858.69;;;12.22;79.65
35649;BME280;21768;48.562;13.414;2023-08-07T05:43:16;96851.91;;;12.21;79.95
35649;BME280;21768;48.562;13.414;2023-08-07T05:45:42;96858.69;;;12.22;79.71
35649;BME280;21768;48.562;13.414;2023-08-07T05:48:10;96865.19;;;12.17;79.85
35649;BME280;21768;48.562;13.414;2023-08-07T05:50:35;96862.28;;;12.09;79.79
35649;BME280;21768;48.562;13.414;2023-08-07T05:53:00;96877.16;;;12.03;80.24
35649;BME280;21768;48.562;13.414;2023-08-07T05:55:26;96881.34;;;12.03;80.90
35649;BME280;21768;48.562;13.414;2023-08-07T05:57:51;96878.00;;;12.04;80.72
35649;BME280;21768;48.562;13.414;2023-08-07T06:00:17;96883.22;;;12.07;80.63
35649;BME280;21768;48.562;13.414;2023-08-07T06:02:44;96885.75;;;12.07;80.56
35649;BME280;21768;48.562;13.414;2023-08-07T06:05:09;96889.16;;;12.07;80.86
35649;BME280;21768;48.562;13.414;2023-08-07T06:07:37;96885.03;;;12.09;80.87
35649;BME280;21768;48.562;13.414;2023-08-07T06:10:03;96883.38;;;12.10;80.77
35649;BME280;21768;48.562;13.414;2023-08-07T06:12:29;96907.09;;;12.12;80.83
35649;BME280;21768;48.562;13.414;2023-08-07T06:14:54;96910.25;;;12.08;80.69
35649;BME280;21768;48.562;13.414;2023-08-07T06:17:19;96910.97;;;12.05;80.96
35649;BME280;21768;48.562;13.414;2023-08-07T06:19:45;96926.91;;;12.04;80.94
35649;BME280;21768;48.562;13.414;2023-08-07T06:22:10;96926.38;;;12.10;81.17
35649;BME280;21768;48.562;13.414;2023-08-07T06:24:36;96939.97;;;12.12;81.24
35649;BME280;21768;48.562;13.414;2023-08-07T06:27:02;96931.44;;;12.10;81.09
35649;BME280;21768;48.562;13.414;2023-08-07T06:29:27;96939.03;;;12.10;81.21
35649;BME280;21768;48.562;13.414;2023-08-07T06:31:53;96929.69;;;12.09;81.43
35649;BME280;21768;48.562;13.414;2023-08-07T06:34:18;96947.56;;;12.12;81.25
35649;BME280;21768;48.562;13.414;2023-08-07T06:36:44;96940.00;;;12.13;81.63
35649;BME280;21768;48.562;13.414;2023-08-07T06:39:09;96954.31;;;12.13;81.21
35649;BME280;21768;48.562;13.414;2023-08-07T06:41:35;96953.41;;;12.11;80.91
35649;BME280;21768;48.562;13.414;2023-08-07T06:44:01;96956.94;;;12.14;81.31
35649;BME280;21768;48.562;13.414;2023-08-07T06:46:26;96960.50;;;12.18;81.01
35649;BME280;21768;48.562;13.414;2023-08-07T06:48:54;96972.97;;;12.15;81.00
35649;BME280;21768;48.562;13.414;2023-08-07T06:51:19;96972.69;;;12.09;81.02
35649;BME280;21768;48.562;13.414;2023-08-07T06:53:45;96970.78;;;12.05;81.43
35649;BME280;21768;48.562;13.414;2023-08-07T06:56:10;96982.97;;;12.12;81.64
35649;BME280;21768;48.562;13.414;2023-08-07T06:58:35;96982.78;;;12.09;81.32
35649;BME280;21768;48.562;13.414;2023-08-07T07:01:01;96986.97;;;12.08;82.01
35649;BME280;21768;48.562;13.414;2023-08-07T07:03:26;96975.84;;;12.05;81.16
35649;BME280;21768;48.562;13.414;2023-08-07T07:05:52;96979.22;;;12.05;81.31
35649;BME280;21768;48.562;13.414;2023-08-07T07:08:17;96983.88;;;11.98;81.24
35649;BME280;21768;48.562;13.414;2023-08-07T07:10:43;96984.50;;;11.93;81.46
35649;BME280;21768;48.562;13.414;2023-08-07T07:13:08;96982.84;;;11.94;81.19
35649;BME280;21768;48.562;13.414;2023-08-07T07:15:35;96989.63;;;11.95;81.11
35649;BME280;21768;48.562;13.414;2023-08-07T07:18:01;97006.47;;;11.95;80.95
35649;BME280;21768;48.562;13.414;2023-08-07T07:20:26;97002.38;;;11.97;81.12
35649;BME280;21768;48.562;13.414;2023-08-07T07:22:52;97018.81;;;12.05;80.81
35649;BME280;21768;48.562;13.414;2023-08-07T07:25:17;97011.22;;;12.05;80.16
35649;BME280;21768;48.562;13.414;2023-08-07T07:27:43;97004.75;;;12.10;80.38
35649;BME280;21768;48.562;13.414;2023-08-07T07:30:09;97000.66;;;12.12;80.34
35649;BME280;21768;48.562;13.414;2023-08-07T07:32:34;97005.94;;;12.16;80.03
35649;BME280;21768;48.562;13.414;2023-08-07T07:35:00;97026.06;;;12.15;80.15
35649;BME280;21768;48.562;13.414;2023-08-07T07:37:25;97056.69;;;12.19;80.30
35649;BME280;21768;48.562;13.414;2023-08-07T07:39:50;97026.94;;;12.15;79.79
35649;BME280;21768;48.562;13.414;2023-08-07T07:42:16;97026.88;;;12.14;79.84
35649;BME280;21768;48.562;13.414;2023-08-07T07:44:41;97040.47;;;12.16;80.16
35649;BME280;21768;48.562;13.414;2023-08-07T07:47:07;97037.47;;;12.23;79.91
35649;BME280;21768;48.562;13.414;2023-08-07T07:49:33;97047.06;;;12.29;80.00
35649;BME280;21768;48.562;13.414;2023-08-07T07:51:59;97049.81;;;12.33;80.34
35649;BME280;21768;48.562;13.414;2023-08-07T07:54:24;97055.19;;;12.39;79.79
35649;BME280;21768;48.562;13.414;2023-08-07T07:56:50;97052.56;;;12.38;79.59
35649;BME280;21768;48.562;13.414;2023-08-07T07:59:16;97053.44;;;12.38;79.46
35649;BME280;21768;48.562;13.414;2023-08-07T08:01:41;97061.09;;;12.40;79.69
35649;BME280;21768;48.562;13.414;2023-08-07T08:04:06;97063.72;;;12.41;79.26
35649;BME280;21768;48.562;13.414;2023-08-07T08:06:32;97057.97;;;12.44;78.62
35649;BME280;21768;48.562;13.414;2023-08-07T08:08:57;97067.84;;;12.39;79.07
35649;BME280;21768;48.562;13.414;2023-08-07T08:11:24;97070.53;;;12.42;79.09
35649;BME280;21768;48.562;13.414;2023-08-07T08:13:49;97071.63;;;12.47;79.31
35649;BME280;21768;48.562;13.414;2023-08-07T08:16:15;97073.00;;;12.57;79.39
35649;BME280;21768;48.562;13.414;2023-08-07T08:18:40;97070.03;;;12.66;79.08
35649;BME280;21768;48.562;13.414;2023-08-07T08:21:05;97077.19;;;12.56;78.68
35649;BME280;21768;48.562;13.414;2023-08-07T08:23:32;97086.34;;;12.54;78.49
35649;BME280;21768;48.562;13.414;2023-08-07T08:25:57;97079.88;;;12.59;78.52
35649;BME280;21768;48.562;13.414;2023-08-07T08:28:22;97085.06;;;12.63;78.30
35649;BME280;21768;48.562;13.414;2023-08-07T08:30:48;97086.97;;;12.67;78.68
35649;BME280;21768;48.562;13.414;2023-08-07T08:33:14;97088.72;;;12.68;78.21
35649;BME280;21768;48.562;13.414;2023-08-07T08:35:39;97102.31;;;12.70;78.37
35649;BME280;21768;48.562;13.414;2023-08-07T08:38:05;97101.78;;;12.75;78.51
35649;BME280;21768;48.562;13.414;2023-08-07T08:40:30;97097.66;;;12.77;78.46
35649;BME280;21768;48.562;13.414;2023-08-07T08:42:59;97097.03;;;12.81;78.25
35649;BME280;21768;48.562;13.414;2023-08-07T08:45:26;97106.53;;;12.85;77.58
35649;BME280;21768;48.562;13.414;2023-08-07T08:47:54;97109.13;;;12.87;78.05
35649;BME280;21768;48.562;13.414;2023-08-07T08:50:21;97113.63;;;12.92;77.77
35649;BME280;21768;48.562;13.414;2023-08-07T08:52:46;97125.91;;;13.01;77.78
35649;BME280;21768;48.562;13.414;2023-08-07T08:55:13;97130.41;;;13.07;77.52
35649;BME280;21768;48.562;13.414;2023-08-07T08:57:39;97122.91;;;13.08;77.69
35649;BME280;21768;48.562;13.414;2023-08-07T09:00:09;97122.56;;;13.18;77.43
35649;BME280;21768;48.562;13.414;2023-08-07T09:02:46;97126.13;;;13.22;77.40
35649;BME280;21768;48.562;13.414;2023-08-07T09:05:14;97132.06;;;13.22;77.25
35649;BME280;21768;48.562;13.414;2023-08-07T09:07:39;97126.84;;;13.19;76.93
35649;BME280;21768;48.562;13.414;2023-08-07T09:10:05;97125.09;;;13.18;76.95
35649;BME280;21768;48.562;13.414;2023-08-07T09:12:32;97133.81;;;13.23;77.08
35649;BME280;21768;48.562;13.414;2023-08-07T09:15:01;97135.63;;;13.26;76.96
35649;BME280;21768;48.562;13.414;2023-08-07T09:17:31;97133.19;;;13.27;76.80
35649;BME280;21768;48.562;13.414;2023-08-07T09:19:59;97138.25;;;13.27;77.09
35649;BME280;21768;48.562;13.414;2023-08-07T09:22:24;97149.97;;;13.25;76.53
35649;BME280;21768;48.562;13.414;2023-08-07T09:24:50;97143.06;;;13.23;77.08
35649;BME280;21768;48.562;13.414;2023-08-07T09:27:16;97140.53;;;13.23;76.92
35649;BME280;21768;48.562;13.414;2023-08-07T09:29:43;97139.75;;;13.24;76.95
35649;BME280;21768;48.562;13.414;2023-08-07T09:32:17;97145.06;;;13.28;76.85
35649;BME280;21768;48.562;13.414;2023-08-07T09:34:43;97148.78;;;13.35;76.97
35649;BME280;21768;48.562;13.414;2023-08-07T09:37:09;97147.59;;;13.28;76.42
35649;BME280;21768;48.562;13.414;2023-08-07T09:39:36;97149.88;;;13.24;76.55
35649;BME280;21768;48.562;13.414;2023-08-07T09:42:03;97158.34;;;13.24;76.57
35649;BME280;21768;48.562;13.414;2023-08-07T09:44:36;97156.78;;;13.26;76.65
35649;BME280;21768;48.562;13.414;2023-08-07T09:49:39;97163.75;;;13.31;76.71
35649;BME280;21768;48.562;13.414;2023-08-07T09:52:06;97171.78;;;13.40;76.43
35649;BME280;21768;48.562;13.414;2023-08-07T09:54:33;97171.22;;;13.45;76.57
35649;BME280;21768;48.562;13.414;2023-08-07T09:56:59;97178.50;;;13.55;76.23
35649;BME280;21768;48.562;13.414;2023-08-07T09:59:26;97174.66;;;13.63;75.23
35649;BME280;21768;48.562;13.414;2023-08-07T10:01:53;97173.00;;;13.64;75.71
35649;BME280;21768;48.562;13.414;2023-08-07T10:04:20;97169.09;;;13.71;76.05
35649;BME280;21768;48.562;13.414;2023-08-07T10:06:46;97183.13;;;13.80;75.22
35649;BME280;21768;48.562;13.414;2023-08-07T10:09:12;97179.97;;;13.86;75.84
35649;BME280;21768;48.562;13.414;2023-08-07T10:11:38;97187.25;;;13.96;75.80
35649;BME280;21768;48.562;13.414;2023-08-07T10:14:05;97187.56;;;14.02;75.44
35649;BME280;21768;48.562;13.414;2023-08-07T10:16:31;97183.50;;;14.06;75.63
35649;BME280;21768;48.562;13.414;2023-08-07T10:18:57;97190.16;;;14.04;74.81
35649;BME280;21768;48.562;13.414;2023-08-07T10:21:24;97172.41;;;14.04;75.19
35649;BME280;21768;48.562;13.414;2023-08-07T10:23:53;97185.50;;;14.13;75.52
35649;BME280;21768;48.562;13.414;2023-08-07T10:26:20;97185.59;;;14.14;74.23
35649;BME280;21768;48.562;13.414;2023-08-07T10:28:49;97189.53;;;14.08;75.21
35649;BME280;21768;48.562;13.414;2023-08-07T10:31:17;97186.97;;;14.08;74.80
35649;BME280;21768;48.562;13.414;2023-08-07T10:33:44;97185.25;;;14.07;75.03
35649;BME280;21768;48.562;13.414;2023-08-07T10:36:10;97197.25;;;14.11;74.41
35649;BME280;21768;48.562;13.414;2023-08-07T10:38:36;97203.25;;;14.13;75.09
35649;BME280;21768;48.562;13.414;2023-08-07T10:41:06;97192.34;;;14.32;75.10
35649;BME280;21768;48.562;13.414;2023-08-07T10:43:36;97203.16;;;14.45;75.06
35649;BME280;21768;48.562;13.414;2023-08-07T10:46:03;97193.81;;;14.44;74.43
35649;BME280;21768;48.562;13.414;2023-08-07T10:48:29;97206.09;;;14.37;74.64
35649;BME280;21768;48.562;13.414;2023-08-07T10:53:41;97197.94;;;14.42;74.93
35649;BME280;21768;48.562;13.414;2023-08-07T10:56:11;97204.97;;;14.48;74.88
35649;BME280;21768;48.562;13.414;2023-08-07T10:58:40;97192.78;;;14.58;74.27
35649;BME280;21768;48.562;13.414;2023-08-07T11:01:22;97214.69;;;14.56;74.20
35649;BME280;21768;48.562;13.414;2023-08-07T11:06:39;97208.16;;;14.44;73.55
35649;BME280;21768;48.562;13.414;2023-08-07T11:09:07;97211.50;;;14.43;73.96
35649;BME280;21768;48.562;13.414;2023-08-07T11:11:44;97204.22;;;14.33;73.39
35649;BME280;21768;48.562;13.414;2023-08-07T11:14:12;97209.50;;;14.37;73.98
35649;BME280;21768;48.562;13.414;2023-08-07T11:16:38;97213.09;;;14.41;73.52
35649;BME280;21768;48.562;13.414;2023-08-07T11:19:05;97215.19;;;14.49;74.50
35649;BME280;21768;48.562;13.414;2023-08-07T11:21:31;97221.50;;;14.57;73.91
35649;BME280;21768;48.562;13.414;2023-08-07T11:23:58;97225.97;;;14.63;73.17
35649;BME280;21768;48.562;13.414;2023-08-07T11:26:24;97224.69;;;14.53;72.74
35649;BME280;21768;48.562;13.414;2023-08-07T11:28:51;97216.00;;;14.48;73.46
35649;BME280;21768;48.562;13.414;2023-08-07T11:31:18;97217.09;;;14.53;74.04
35649;BME280;21768;48.562;13.414;2023-08-07T11:33:43;97216.22;;;14.53;73.45
35649;BME280;21768;48.562;13.414;2023-08-07T11:36:13;97216.75;;;14.65;73.81
35649;BME280;21768;48.562;13.414;2023-08-07T11:38:43;97216.75;;;14.83;74.46
35649;BME280;21768;48.562;13.414;2023-08-07T11:41:10;97214.47;;;14.89;73.21
35649;BME280;21768;48.562;13.414;2023-08-07T11:43:36;97219.25;;;15.01;74.05
35649;BME280;21768;48.562;13.414;2023-08-07T11:46:04;97212.22;;;15.14;73.77
35649;BME280;21768;48.562;13.414;2023-08-07T11:48:31;97213.16;;;15.36;73.73
35649;BME280;21768;48.562;13.414;2023-08-07T11:50:58;97207.53;;;15.43;72.58
35649;BME280;21768;48.562;13.414;2023-08-07T11:53:28;97214.88;;;15.37;72.58
35649;BME280;21768;48.562;13.414;2023-08-07T11:55:58;97217.19;;;15.30;72.84
35649;BME280;21768;48.562;13.414;2023-08-07T11:58:25;97217.78;;;15.25;73.63
35649;BME280;21768;48.562;13.414;2023-08-07T12:00:51;97222.28;;;15.30;73.70
35649;BME280;21768;48.562;13.414;2023-08-07T12:03:32;97217.50;;;15.38;74.44
35649;BME280;21768;48.562;13.414;2023-08-07T12:05:59;97225.31;;;15.43;73.45
35649;BME280;21768;48.562;13.414;2023-08-07T12:11:03;97234.44;;;15.18;71.98
35649;BME280;21768;48.562;13.414;2023-08-07T12:13:30;97229.22;;;15.15;73.36
35649;BME280;21768;48.562;13.414;2023-08-07T12:15:57;97234.84;;;15.27;73.43
35649;BME280;21768;48.562;13.414;2023-08-07T12:18:23;97239.78;;;15.24;73.18
35649;BME280;21768;48.562;13.414;2023-08-07T12:20:57;97232.38;;;15.29;72.51
35649;BME280;21768;48.562;13.414;2023-08-07T12:23:22;97231.88;;;15.38;72.82
35649;BME280;21768;48.562;13.414;2023-08-07T12:25:48;97230.53;;;15.46;72.06
35649;BME280;21768;48.562;13.414;2023-08-07T12:28:15;97236.22;;;15.58;73.09
35649;BME280;21768;48.562;13.414;2023-08-07T12:30:44;97231.81;;;15.75;72.61
35649;BME280;21768;48.562;13.414;2023-08-07T12:33:09;97229.59;;;15.82;71.29
35649;BME280;21768;48.562;13.414;2023-08-07T12:35:35;97228.91;;;15.86;71.13
35649;BME280;21768;48.562;13.414;2023-08-07T12:38:00;97239.59;;;15.98;69.88
35649;BME280;21768;48.562;13.414;2023-08-07T12:40:30;97231.84;;;15.95;69.66
35649;BME280;21768;48.562;13.414;2023-08-07T12:42:56;97232.16;;;16.03;70.30
35649;BME280;21768;48.562;13.414;2023-08-07T12:45:22;97236.50;;;16.06;70.35
35649;BME280;21768;48.562;13.414;2023-08-07T12:47:47;97234.78;;;15.85;69.28
35649;BME280;21768;48.562;13.414;2023-08-07T12:50:12;97232.75;;;15.77;68.72
35649;BME280;21768;48.562;13.414;2023-08-07T12:52:38;97235.91;;;15.71;68.25
35649;BME280;21768;48.562;13.414;2023-08-07T12:55:03;97241.66;;;15.67;69.33
35649;BME280;21768;48.562;13.414;2023-08-07T12:57:31;97238.72;;;15.77;68.66
35649;BME280;21768;48.562;13.414;2023-08-07T12:59:56;97244.00;;;16.03;67.62
35649;BME280;21768;48.562;13.414;2023-08-07T13:02:21;97244.44;;;16.34;68.15
35649;BME280;21768;48.562;13.414;2023-08-07T13:04:47;97249.66;;;16.58;67.79
35649;BME280;21768;48.562;13.414;2023-08-07T13:07:12;97251.81;;;16.70;68.25
35649;BME280;21768;48.562;13.414;2023-08-07T13:09:37;97245.41;;;16.79;68.54